Time;durP1;ratioP1;P1;durP2;ratioP2;P2;SDS_P1;SDS_P2;PMS_P1;PMS_P2;Temp;Humidity;BMP_temperature;BMP_pressure;BME280_temperature;BME280_humidity;BME280_pressure;Samples;Min_cycle;Max_cycle;Signal;HPM_P1;HPM_P2
2021/01/24 00:00:45;;;;;;;3.77;2.03;;;;;;;;;;5005325;28;20467;-96
2021/01/24 00:03:11;;;;;;;3.63;2.13;;;;;;;;;;5009126;28;20971;-95
2021/01/24 00:05:42;;;;;;;2.80;2.20;;;;;;;;;;5009162;28;20441;-96
2021/01/24 00:08:08;;;;;;;5.53;2.30;;;;;;;;;;5008064;28;20479;-96
2021/01/24 00:10:34;;;;;;;3.50;2.10;;;;;;;;;;5030792;23;20453;-96
2021/01/24 00:13:00;;;;;;;2.20;2.00;;;;;;;;;;5023877;28;20479;-96
2021/01/24 00:15:27;;;;;;;2.53;1.77;;;;;;;;;;5017018;23;20497;-96
2021/01/24 00:17:53;;;;;;;4.17;2.60;;;;;;;;;;4984714;28;20473;-96
2021/01/24 00:20:19;;;;;;;2.77;2.57;;;;;;;;;;4986621;28;20448;-95
2021/01/24 00:22:45;;;;;;;3.40;2.00;;;;;;;;;;4982051;28;20490;-94
2021/01/24 00:25:11;;;;;;;2.40;2.20;;;;;;;;;;4983206;28;20508;-96
2021/01/24 00:27:50;;;;;;;2.93;2.63;;;;;;;;;;4981842;28;20446;-96
2021/01/24 00:30:18;;;;;;;3.03;2.73;;;;;;;;;;4987264;28;20452;-96
2021/01/24 00:32:45;;;;;;;3.97;2.23;;;;;;;;;;4990071;28;20457;-96
2021/01/24 00:35:13;;;;;;;2.60;2.27;;;;;;;;;;4985911;28;20802;-96
2021/01/24 00:37:43;;;;;;;2.43;2.23;;;;;;;;;;4994198;28;20445;-96
2021/01/24 00:40:34;;;;;;;3.07;2.30;;;;;;;;;;4991342;28;20485;-96
2021/01/24 00:43:00;;;;;;;3.03;2.53;;;;;;;;;;4998951;28;20487;-96
2021/01/24 00:45:26;;;;;;;2.40;2.13;;;;;;;;;;4990482;28;20457;-96
2021/01/24 00:47:54;;;;;;;3.03;2.13;;;;;;;;;;4966955;28;20460;-96
2021/01/24 00:50:20;;;;;;;2.43;2.23;;;;;;;;;;4980657;28;20965;-96
2021/01/24 00:52:46;;;;;;;2.23;2.13;;;;;;;;;;4988445;28;21050;-96
2021/01/24 00:55:12;;;;;;;2.20;2.00;;;;;;;;;;4987676;28;20976;-96
2021/01/24 00:57:38;;;;;;;2.47;2.27;;;;;;;;;;4979888;28;20442;-95
2021/01/24 01:00:04;;;;;;;2.80;2.60;;;;;;;;;;4984878;28;20469;-95
2021/01/24 01:02:30;;;;;;;3.20;3.00;;;;;;;;;;4985820;28;20462;-95
2021/01/24 01:04:57;;;;;;;4.17;3.77;;;;;;;;;;4985204;28;20472;-96
2021/01/24 01:07:23;;;;;;;4.90;4.20;;;;;;;;;;4986547;28;20478;-96
2021/01/24 01:09:49;;;;;;;3.83;3.40;;;;;;;;;;4987643;28;20449;-95
2021/01/24 01:12:15;;;;;;;4.43;3.70;;;;;;;;;;4984752;28;20477;-95
2021/01/24 01:14:41;;;;;;;4.07;3.60;;;;;;;;;;4983908;28;20481;-95
2021/01/24 01:17:07;;;;;;;4.53;3.57;;;;;;;;;;4987668;28;20497;-96
2021/01/24 01:19:33;;;;;;;5.50;3.70;;;;;;;;;;4983655;28;20469;-95
2021/01/24 01:22:03;;;;;;;4.40;4.00;;;;;;;;;;4986644;28;20457;-96
2021/01/24 01:24:29;;;;;;;3.10;2.60;;;;;;;;;;4987008;28;20485;-96
2021/01/24 01:26:55;;;;;;;1.80;1.70;;;;;;;;;;4989434;28;20489;-96
2021/01/24 01:29:22;;;;;;;1.53;1.10;;;;;;;;;;4987699;28;20463;-96
2021/01/24 01:31:48;;;;;;;1.13;1.03;;;;;;;;;;4979503;28;20481;-96
2021/01/24 01:34:14;;;;;;;1.50;1.40;;;;;;;;;;4988003;28;21016;-95
2021/01/24 01:36:40;;;;;;;1.47;1.37;;;;;;;;;;4995205;28;20493;-96
2021/01/24 01:39:07;;;;;;;1.60;1.50;;;;;;;;;;4984375;28;20870;-96
2021/01/24 01:41:34;;;;;;;2.30;2.10;;;;;;;;;;4990359;28;20445;-96
2021/01/24 01:44:01;;;;;;;1.90;1.77;;;;;;;;;;4985997;28;20466;-95
2021/01/24 01:46:28;;;;;;;1.30;1.20;;;;;;;;;;4990022;28;20446;-96
2021/01/24 01:48:54;;;;;;;1.60;1.50;;;;;;;;;;4987454;28;20462;-96
2021/01/24 01:51:20;;;;;;;1.70;1.60;;;;;;;;;;4987143;28;20463;-96
2021/01/24 01:53:47;;;;;;;1.50;1.40;;;;;;;;;;4969743;28;20540;-96
2021/01/24 01:56:14;;;;;;;1.40;1.30;;;;;;;;;;4987908;28;20568;-96
2021/01/24 01:58:40;;;;;;;1.20;1.10;;;;;;;;;;4984809;28;20451;-96
2021/01/24 02:01:15;;;;;;;1.40;1.30;;;;;;;;;;4981301;28;20462;-96
2021/01/24 02:03:48;;;;;;;1.20;1.10;;;;;;;;;;4984430;28;20580;-95
2021/01/24 02:06:16;;;;;;;6.93;3.10;;;;;;;;;;4986782;28;20493;-96
2021/01/24 02:08:46;;;;;;;8.30;5.00;;;;;;;;;;4987017;28;20461;-96
2021/01/24 02:11:16;;;;;;;6.63;4.07;;;;;;;;;;4983468;28;20457;-96
2021/01/24 02:13:55;;;;;;;2.87;2.40;;;;;;;;;;4989195;28;20440;-96
2021/01/24 02:19:10;;;;;;;2.90;2.50;;;;;;;;;;4994267;28;20517;-96
2021/01/24 02:21:44;;;;;;;2.37;1.73;;;;;;;;;;4982361;28;20504;-96
2021/01/24 02:30:12;;;;;;;2.20;1.97;;;;;;;;;;5628791;23;20476;-96
2021/01/24 02:32:40;;;;;;;2.40;2.20;;;;;;;;;;4982038;28;20460;-96
2021/01/24 02:37:54;;;;;;;3.00;2.80;;;;;;;;;;5050347;23;20502;-96
2021/01/24 02:40:55;;;;;;;4.03;2.80;;;;;;;;;;5029816;28;20502;-96
2021/01/24 02:43:59;;;;;;;4.13;3.40;;;;;;;;;;5036992;28;20502;-96
2021/01/24 02:46:41;;;;;;;5.00;4.00;;;;;;;;;;5035281;28;20459;-97
2021/01/24 02:49:18;;;;;;;3.57;2.90;;;;;;;;;;5026399;28;20468;-96
2021/01/24 02:54:28;;;;;;;2.80;2.60;;;;;;;;;;5034008;23;20566;-96
2021/01/24 02:56:55;;;;;;;2.83;2.60;;;;;;;;;;5032379;28;20491;-96
2021/01/24 02:59:21;;;;;;;2.90;2.70;;;;;;;;;;5029244;28;20963;-96
2021/01/24 03:01:47;;;;;;;2.60;2.40;;;;;;;;;;5023241;28;20460;-96
2021/01/24 03:04:13;;;;;;;2.83;2.63;;;;;;;;;;5021017;28;20455;-96
2021/01/24 03:06:42;;;;;;;4.57;3.67;;;;;;;;;;5030948;28;20588;-96
2021/01/24 03:09:08;;;;;;;8.67;5.70;;;;;;;;;;5028109;28;20459;-96
2021/01/24 03:11:35;;;;;;;12.07;8.57;;;;;;;;;;5023175;28;20452;-94
2021/01/24 03:14:04;;;;;;;4.87;4.10;;;;;;;;;;5019178;28;20456;-96
2021/01/24 03:16:31;;;;;;;8.27;5.93;;;;;;;;;;5021281;28;20488;-96
2021/01/24 03:18:59;;;;;;;8.17;5.93;;;;;;;;;;5020179;28;20448;-95
2021/01/24 03:21:25;;;;;;;5.93;5.10;;;;;;;;;;5021054;28;20464;-96
2021/01/24 03:23:52;;;;;;;5.90;4.57;;;;;;;;;;5019217;28;20470;-96
2021/01/24 03:26:18;;;;;;;3.33;3.03;;;;;;;;;;5020973;28;20448;-95
2021/01/24 03:28:45;;;;;;;2.73;2.53;;;;;;;;;;5021353;28;20463;-96
2021/01/24 03:31:11;;;;;;;2.90;2.70;;;;;;;;;;5020234;28;20490;-96
2021/01/24 03:33:38;;;;;;;4.10;3.70;;;;;;;;;;5030282;28;20436;-96
2021/01/24 03:36:04;;;;;;;4.63;4.23;;;;;;;;;;5028471;28;21160;-95
2021/01/24 03:38:30;;;;;;;4.23;3.83;;;;;;;;;;5022643;28;20460;-96
2021/01/24 03:40:57;;;;;;;3.63;3.33;;;;;;;;;;5020580;28;20460;-96
2021/01/24 03:43:49;;;;;;;4.20;3.70;;;;;;;;;;5029906;28;20444;-96
2021/01/24 03:46:16;;;;;;;4.20;3.80;;;;;;;;;;5031053;23;20504;-96
2021/01/24 03:51:29;;;;;;;3.53;2.90;;;;;;;;;;5005429;28;20444;-96
2021/01/24 03:53:55;;;;;;;4.40;3.83;;;;;;;;;;5010431;28;20449;-96
2021/01/24 03:56:22;;;;;;;3.60;2.53;;;;;;;;;;5006517;28;20495;-96
2021/01/24 03:58:49;;;;;;;2.97;2.60;;;;;;;;;;5009092;28;20529;-96
2021/01/24 04:01:15;;;;;;;3.00;2.70;;;;;;;;;;4999851;28;20452;-96
2021/01/24 04:03:41;;;;;;;2.47;2.27;;;;;;;;;;4995842;28;20458;-95
2021/01/24 04:06:07;;;;;;;6.00;4.50;;;;;;;;;;5004020;28;20425;-96
2021/01/24 04:08:33;;;;;;;10.53;5.70;;;;;;;;;;5006431;28;20506;-96
2021/01/24 04:10:59;;;;;;;4.10;3.27;;;;;;;;;;5000475;28;20495;-95
2021/01/24 04:13:26;;;;;;;4.50;3.23;;;;;;;;;;5003123;28;21139;-95
2021/01/24 04:15:52;;;;;;;6.17;3.90;;;;;;;;;;5002038;28;20522;-94
2021/01/24 04:18:18;;;;;;;6.00;3.73;;;;;;;;;;5001525;28;20461;-94
2021/01/24 04:20:49;;;;;;;6.53;4.30;;;;;;;;;;5006977;28;20424;-96
2021/01/24 04:23:19;;;;;;;4.37;4.00;;;;;;;;;;5013011;28;20460;-96
2021/01/24 04:26:02;;;;;;;3.77;3.40;;;;;;;;;;5008117;28;20460;-96
2021/01/24 04:28:29;;;;;;;6.70;4.33;;;;;;;;;;5006500;28;20456;-96
2021/01/24 04:31:07;;;;;;;6.20;4.75;;;;;;;;;;5010549;28;20472;-96
2021/01/24 04:33:35;;;;;;;4.90;4.10;;;;;;;;;;5009250;28;20214;-96
2021/01/24 04:36:01;;;;;;;3.83;3.13;;;;;;;;;;5011655;28;20601;-95
2021/01/24 04:38:27;;;;;;;5.07;3.07;;;;;;;;;;5006153;28;20484;-96
2021/01/24 04:40:54;;;;;;;4.30;3.90;;;;;;;;;;5007641;28;20445;-96
2021/01/24 04:43:20;;;;;;;4.23;3.10;;;;;;;;;;5007653;28;20466;-96
2021/01/24 04:45:47;;;;;;;3.97;2.97;;;;;;;;;;5006673;28;20476;-96
2021/01/24 04:48:13;;;;;;;3.47;3.17;;;;;;;;;;5002920;28;20488;-95
2021/01/24 04:50:39;;;;;;;3.43;3.07;;;;;;;;;;5005306;28;20988;-96
2021/01/24 04:53:05;;;;;;;6.43;4.70;;;;;;;;;;5002642;28;20452;-96
2021/01/24 04:55:31;;;;;;;9.10;4.30;;;;;;;;;;5005135;28;20469;-95
2021/01/24 04:57:58;;;;;;;10.63;5.60;;;;;;;;;;5004741;28;20495;-96
2021/01/24 05:00:24;;;;;;;13.10;5.60;;;;;;;;;;5007505;28;20460;-96
2021/01/24 05:02:51;;;;;;;6.60;4.60;;;;;;;;;;5006393;28;20445;-96
2021/01/24 05:05:17;;;;;;;6.03;4.50;;;;;;;;;;5011314;28;20445;-96
2021/01/24 05:07:54;;;;;;;5.00;4.17;;;;;;;;;;5014212;28;20440;-96
2021/01/24 05:10:24;;;;;;;8.10;5.97;;;;;;;;;;5012384;28;21073;-96
2021/01/24 05:12:50;;;;;;;3.65;3.35;;;;;;;;;;4996681;28;20449;-95
2021/01/24 05:15:16;;;;;;;7.20;4.87;;;;;;;;;;5003798;28;20209;-95
2021/01/24 05:17:53;;;;;;;4.40;3.90;;;;;;;;;;5004621;28;20558;-95
2021/01/24 05:20:22;;;;;;;5.77;4.50;;;;;;;;;;5001832;28;20789;-95
2021/01/24 05:22:48;;;;;;;5.13;4.63;;;;;;;;;;5004799;28;20460;-96
2021/01/24 05:25:28;;;;;;;6.63;4.60;;;;;;;;;;5008118;28;20456;-96
2021/01/24 05:27:55;;;;;;;6.50;4.80;;;;;;;;;;5013338;28;20448;-96
2021/01/24 05:30:22;;;;;;;4.87;4.37;;;;;;;;;;5003413;28;20465;-96
2021/01/24 05:32:48;;;;;;;8.77;6.60;;;;;;;;;;5005081;28;20480;-96
2021/01/24 05:35:15;;;;;;;9.23;5.73;;;;;;;;;;5001405;28;20449;-96
2021/01/24 05:37:44;;;;;;;12.63;7.20;;;;;;;;;;5003403;28;20539;-96
2021/01/24 05:40:11;;;;;;;9.03;6.97;;;;;;;;;;5001454;28;20453;-95
2021/01/24 05:42:37;;;;;;;8.90;7.23;;;;;;;;;;5004509;28;20456;-96
2021/01/24 05:45:08;;;;;;;9.35;7.25;;;;;;;;;;5002703;28;20491;-96
2021/01/24 05:47:36;;;;;;;7.50;5.60;;;;;;;;;;5005085;28;20214;-96
2021/01/24 05:50:02;;;;;;;12.57;7.87;;;;;;;;;;5000392;28;20463;-95
2021/01/24 05:52:29;;;;;;;8.05;6.63;;;;;;;;;;5002681;28;20459;-96
2021/01/24 05:54:55;;;;;;;12.67;9.13;;;;;;;;;;4986235;28;20222;-96
2021/01/24 05:57:23;;;;;;;13.97;9.57;;;;;;;;;;5005359;28;20491;-95
2021/01/24 05:59:51;;;;;;;16.88;10.32;;;;;;;;;;5008976;28;20452;-96
2021/01/24 06:02:17;;;;;;;20.50;13.20;;;;;;;;;;5003453;28;20213;-96
2021/01/24 06:04:44;;;;;;;18.10;11.70;;;;;;;;;;5005738;28;20449;-96
2021/01/24 06:07:10;;;;;;;17.93;11.97;;;;;;;;;;5002821;28;20506;-96
2021/01/24 06:09:37;;;;;;;20.13;14.03;;;;;;;;;;5006538;28;20460;-96
2021/01/24 06:12:03;;;;;;;23.57;14.40;;;;;;;;;;5000802;28;20456;-96
2021/01/24 06:14:31;;;;;;;17.93;12.97;;;;;;;;;;5002829;28;20454;-96
2021/01/24 06:17:00;;;;;;;22.05;15.70;;;;;;;;;;5000297;28;20504;-95
2021/01/24 06:19:29;;;;;;;18.90;13.45;;;;;;;;;;5005057;28;20208;-96
2021/01/24 06:21:56;;;;;;;21.92;13.93;;;;;;;;;;5002234;28;20209;-95
2021/01/24 06:24:24;;;;;;;22.15;13.75;;;;;;;;;;5003762;28;21385;-95
2021/01/24 06:26:53;;;;;;;18.13;13.55;;;;;;;;;;5001278;28;20208;-95
2021/01/24 06:29:21;;;;;;;18.33;13.50;;;;;;;;;;5004233;28;20211;-95
2021/01/24 06:31:47;;;;;;;20.58;14.02;;;;;;;;;;5005535;28;20202;-96
2021/01/24 06:34:14;;;;;;;22.17;14.25;;;;;;;;;;5005962;28;20212;-95
2021/01/24 06:37:01;;;;;;;21.55;15.05;;;;;;;;;;5011403;28;20224;-96
2021/01/24 06:39:28;;;;;;;18.70;12.23;;;;;;;;;;5009666;28;20707;-96
2021/01/24 06:41:55;;;;;;;26.93;16.10;;;;;;;;;;5007472;28;20212;-96
2021/01/24 06:44:42;;;;;;;35.37;17.40;;;;;;;;;;5005066;28;20467;-96
2021/01/24 06:47:09;;;;;;;26.90;19.60;;;;;;;;;;4996914;28;21270;-95
2021/01/24 06:49:39;;;;;;;24.20;18.17;;;;;;;;;;5004832;28;20208;-96
2021/01/24 06:52:14;;;;;;;25.00;19.60;;;;;;;;;;5003401;28;20215;-96
2021/01/24 06:54:41;;;;;;;30.23;21.33;;;;;;;;;;5004428;28;20263;-96
2021/01/24 06:57:08;;;;;;;30.00;21.73;;;;;;;;;;5005471;28;20231;-96
2021/01/24 06:59:34;;;;;;;38.45;24.02;;;;;;;;;;5000389;28;20463;-96
2021/01/24 07:02:15;;;;;;;33.40;24.60;;;;;;;;;;5001828;28;20213;-96
2021/01/24 07:04:41;;;;;;;37.15;25.75;;;;;;;;;;5002611;28;20479;-96
2021/01/24 07:07:33;;;;;;;36.88;24.75;;;;;;;;;;5005230;28;20186;-96
2021/01/24 07:10:09;;;;;;;28.50;19.50;;;;;;;;;;5005015;28;20221;-96
2021/01/24 07:12:41;;;;;;;22.37;16.63;;;;;;;;;;5011965;28;20485;-96
2021/01/24 07:15:08;;;;;;;27.67;19.03;;;;;;;;;;5006837;28;20474;-96
2021/01/24 07:17:40;;;;;;;24.65;17.73;;;;;;;;;;5009940;28;20486;-96
2021/01/24 07:20:45;;;;;;;24.53;18.17;;;;;;;;;;4994618;28;20197;-96
2021/01/24 07:23:13;;;;;;;22.33;18.45;;;;;;;;;;4995459;28;20558;-96
2021/01/24 07:25:40;;;;;;;22.60;16.70;;;;;;;;;;5006440;28;20212;-96
2021/01/24 07:28:07;;;;;;;22.93;17.10;;;;;;;;;;5006432;28;20467;-96
2021/01/24 07:30:38;;;;;;;12.53;9.87;;;;;;;;;;5003258;28;20453;-95
2021/01/24 07:33:05;;;;;;;7.37;5.70;;;;;;;;;;5004493;28;20455;-94
2021/01/24 07:35:34;;;;;;;7.33;5.07;;;;;;;;;;5001909;28;20468;-95
2021/01/24 07:38:00;;;;;;;4.70;4.00;;;;;;;;;;4995162;28;21094;-96
2021/01/24 07:40:27;;;;;;;9.70;3.77;;;;;;;;;;5004141;28;20480;-96
2021/01/24 07:42:54;;;;;;;4.83;4.20;;;;;;;;;;5007946;28;20455;-96
2021/01/24 07:45:21;;;;;;;6.60;4.90;;;;;;;;;;5013504;28;20468;-96
2021/01/24 07:47:47;;;;;;;5.53;4.70;;;;;;;;;;5007914;28;20445;-96
2021/01/24 07:50:14;;;;;;;5.03;4.40;;;;;;;;;;5002093;28;20472;-96
2021/01/24 07:52:40;;;;;;;8.27;5.43;;;;;;;;;;4997534;28;20518;-96
2021/01/24 07:55:25;;;;;;;6.63;5.10;;;;;;;;;;5019671;23;20505;-96
2021/01/24 07:57:51;;;;;;;4.57;4.13;;;;;;;;;;4965432;29;20503;-96
2021/01/24 08:00:19;;;;;;;7.30;4.67;;;;;;;;;;4963397;28;20458;-96
2021/01/24 08:02:46;;;;;;;5.83;5.23;;;;;;;;;;4963032;29;20531;-96
2021/01/24 08:05:13;;;;;;;5.67;4.20;;;;;;;;;;4961844;28;20475;-96
2021/01/24 08:07:39;;;;;;;6.03;4.57;;;;;;;;;;4964494;29;20450;-96
2021/01/24 08:10:06;;;;;;;4.13;3.50;;;;;;;;;;4963861;28;20455;-96
2021/01/24 08:12:33;;;;;;;4.53;2.90;;;;;;;;;;4967075;28;20434;-96
2021/01/24 08:14:59;;;;;;;3.10;2.80;;;;;;;;;;4969787;28;20450;-96
2021/01/24 08:17:29;;;;;;;4.93;3.20;;;;;;;;;;4974344;28;20485;-96
2021/01/24 08:20:13;;;;;;;4.43;3.47;;;;;;;;;;5043344;23;20454;-96
2021/01/24 08:22:39;;;;;;;4.30;3.40;;;;;;;;;;4996277;28;21147;-96
2021/01/24 08:25:07;;;;;;;6.33;3.27;;;;;;;;;;5011088;28;20448;-96
2021/01/24 08:27:33;;;;;;;4.87;3.60;;;;;;;;;;5001964;28;20975;-96
2021/01/24 08:30:01;;;;;;;4.70;3.37;;;;;;;;;;5001820;28;20477;-96
2021/01/24 08:32:27;;;;;;;3.73;3.17;;;;;;;;;;5007947;28;20467;-96
2021/01/24 08:34:55;;;;;;;3.80;3.10;;;;;;;;;;5013837;28;20562;-96
2021/01/24 08:37:23;;;;;;;6.00;3.50;;;;;;;;;;5006926;28;21058;-96
2021/01/24 08:39:51;;;;;;;4.60;3.73;;;;;;;;;;5011311;28;20448;-96
2021/01/24 08:42:17;;;;;;;2.80;2.60;;;;;;;;;;5000509;28;20460;-96
2021/01/24 08:44:57;;;;;;;3.70;3.40;;;;;;;;;;5003695;28;20480;-96
2021/01/24 08:47:23;;;;;;;3.70;2.77;;;;;;;;;;5002735;28;20457;-96
2021/01/24 08:49:49;;;;;;;3.60;2.30;;;;;;;;;;5008082;28;20548;-95
2021/01/24 08:52:26;;;;;;;2.57;2.37;;;;;;;;;;5011641;28;20438;-96
2021/01/24 08:55:02;;;;;;;2.97;2.70;;;;;;;;;;5014562;28;20444;-96
2021/01/24 08:57:31;;;;;;;6.13;3.23;;;;;;;;;;5013566;28;20467;-96
2021/01/24 08:59:58;;;;;;;3.80;2.90;;;;;;;;;;5016563;28;20445;-96
2021/01/24 09:02:27;;;;;;;4.07;3.03;;;;;;;;;;5014807;28;20460;-96
2021/01/24 09:07:40;;;;;;;4.47;3.60;;;;;;;;;;5016626;28;20433;-96
2021/01/24 09:10:20;;;;;;;3.10;2.80;;;;;;;;;;5013001;28;20463;-96
2021/01/24 09:12:47;;;;;;;7.40;3.23;;;;;;;;;;5014247;28;20472;-96
2021/01/24 09:15:14;;;;;;;2.90;1.90;;;;;;;;;;5016505;28;20461;-96
2021/01/24 09:17:47;;;;;;;4.63;2.30;;;;;;;;;;5005267;28;20485;-96
2021/01/24 09:20:13;;;;;;;2.93;2.20;;;;;;;;;;4996332;28;20476;-96
2021/01/24 09:22:40;;;;;;;2.67;2.00;;;;;;;;;;5016068;28;20470;-96
2021/01/24 09:25:07;;;;;;;3.97;3.10;;;;;;;;;;5015173;28;20430;-96
2021/01/24 09:27:36;;;;;;;5.30;2.90;;;;;;;;;;5010525;28;20469;-95
2021/01/24 09:30:09;;;;;;;5.77;3.63;;;;;;;;;;5000022;28;20442;-96
2021/01/24 09:32:38;;;;;;;3.20;2.60;;;;;;;;;;5013283;28;20429;-96
2021/01/24 09:35:27;;;;;;;4.20;2.83;;;;;;;;;;5012997;28;20468;-95
2021/01/24 09:37:56;;;;;;;2.87;2.60;;;;;;;;;;5011561;28;20526;-95
2021/01/24 09:40:22;;;;;;;2.50;2.27;;;;;;;;;;5005505;28;20468;-96
2021/01/24 09:42:56;;;;;;;3.33;3.03;;;;;;;;;;5015141;28;20440;-96
2021/01/24 09:45:24;;;;;;;3.20;2.90;;;;;;;;;;5011810;28;20457;-96
2021/01/24 09:47:51;;;;;;;3.10;2.77;;;;;;;;;;5011512;28;20432;-96
2021/01/24 09:50:17;;;;;;;2.97;2.20;;;;;;;;;;5011694;28;20456;-95
2021/01/24 09:52:43;;;;;;;3.60;2.33;;;;;;;;;;5041782;23;20505;-95
2021/01/24 09:55:10;;;;;;;2.47;2.27;;;;;;;;;;5035127;28;20449;-96
2021/01/24 09:57:39;;;;;;;2.57;2.37;;;;;;;;;;5015053;28;20464;-96
2021/01/24 10:00:10;;;;;;;3.63;3.33;;;;;;;;;;5016703;28;20518;-96
2021/01/24 10:02:41;;;;;;;6.00;2.30;;;;;;;;;;5029708;28;20459;-96
2021/01/24 10:05:13;;;;;;;2.80;2.50;;;;;;;;;;5038141;28;20454;-96
2021/01/24 10:07:44;;;;;;;2.27;2.07;;;;;;;;;;5037045;28;20474;-96
2021/01/24 10:10:16;;;;;;;2.80;2.10;;;;;;;;;;5031338;28;20470;-94
2021/01/24 10:12:43;;;;;;;2.23;2.00;;;;;;;;;;5031590;28;20465;-96
2021/01/24 10:15:17;;;;;;;2.73;2.10;;;;;;;;;;5028048;28;20444;-96
2021/01/24 10:17:43;;;;;;;2.03;1.90;;;;;;;;;;5024773;28;20487;-95
2021/01/24 10:20:18;;;;;;;2.30;2.10;;;;;;;;;;5028956;28;20452;-96
2021/01/24 10:22:48;;;;;;;2.50;2.10;;;;;;;;;;5017788;28;20483;-96
2021/01/24 10:25:15;;;;;;;2.13;1.93;;;;;;;;;;5565722;23;20504;-95
2021/01/24 10:30:22;;;;;;;2.43;2.13;;;;;;;;;;5265700;23;20485;-96
2021/01/24 10:38:28;;;;;;;3.40;1.97;;;;;;;;;;5006779;28;20511;-96
2021/01/24 10:40:59;;;;;;;4.30;2.27;;;;;;;;;;5035387;23;20544;-96
2021/01/24 10:43:26;;;;;;;5.20;1.60;;;;;;;;;;5011934;28;20441;-96
2021/01/24 10:46:01;;;;;;;2.93;2.00;;;;;;;;;;5011530;28;20445;-96
2021/01/24 10:51:32;;;;;;;1.80;1.70;;;;;;;;;;5007008;28;20448;-96
2021/01/24 10:53:59;;;;;;;1.70;1.50;;;;;;;;;;5010881;28;20500;-96
2021/01/24 10:56:34;;;;;;;1.50;1.40;;;;;;;;;;5015201;28;20455;-96
2021/01/24 10:59:01;;;;;;;1.90;1.70;;;;;;;;;;4994932;28;20458;-96
2021/01/24 11:01:28;;;;;;;2.20;2.00;;;;;;;;;;5011484;28;20457;-95
2021/01/24 11:03:54;;;;;;;2.10;1.60;;;;;;;;;;5006677;28;20463;-95
2021/01/24 11:06:24;;;;;;;1.60;1.50;;;;;;;;;;5008277;28;20479;-96
2021/01/24 11:08:58;;;;;;;3.97;1.97;;;;;;;;;;5011792;28;20464;-96
2021/01/24 11:11:32;;;;;;;4.20;1.90;;;;;;;;;;5012230;28;20452;-96
2021/01/24 11:14:14;;;;;;;2.03;1.70;;;;;;;;;;5013143;28;20495;-96
2021/01/24 11:16:41;;;;;;;2.87;2.00;;;;;;;;;;5014135;28;20475;-96
2021/01/24 11:19:07;;;;;;;1.90;1.50;;;;;;;;;;4986246;28;20474;-94
2021/01/24 11:24:25;;;;;;;1.80;1.50;;;;;;;;;;5007772;28;20532;-95
2021/01/24 11:27:05;;;;;;;1.90;1.80;;;;;;;;;;5017198;23;20565;-96
2021/01/24 11:29:33;;;;;;;2.60;1.93;;;;;;;;;;5005340;28;20460;-96
2021/01/24 11:32:01;;;;;;;3.07;2.30;;;;;;;;;;5005561;28;20453;-95
2021/01/24 11:34:27;;;;;;;2.37;2.17;;;;;;;;;;5006346;28;20456;-96
2021/01/24 11:36:56;;;;;;;2.77;1.73;;;;;;;;;;5007391;28;20506;-94
2021/01/24 11:39:29;;;;;;;2.53;1.67;;;;;;;;;;5007166;28;20453;-96
2021/01/24 11:47:11;;;;;;;2.00;1.73;;;;;;;;;;5005440;28;20208;-95
2021/01/24 11:49:37;;;;;;;2.17;2.00;;;;;;;;;;5007826;23;20503;-96
2021/01/24 11:52:03;;;;;;;2.70;2.13;;;;;;;;;;5006387;28;20476;-96
2021/01/24 11:54:29;;;;;;;2.80;2.60;;;;;;;;;;5001711;28;20459;-95
2021/01/24 11:59:43;;;;;;;2.63;2.17;;;;;;;;;;5004469;28;20449;-96
2021/01/24 12:02:12;;;;;;;3.30;2.63;;;;;;;;;;5006753;28;20448;-94
2021/01/24 12:04:39;;;;;;;3.00;2.70;;;;;;;;;;5005166;28;20444;-94
2021/01/24 12:07:09;;;;;;;3.90;2.43;;;;;;;;;;5006326;28;20526;-96
2021/01/24 12:09:38;;;;;;;2.47;2.13;;;;;;;;;;5009755;28;20485;-96
2021/01/24 12:12:15;;;;;;;3.20;2.70;;;;;;;;;;5022264;23;20491;-96
2021/01/24 12:14:45;;;;;;;5.70;2.80;;;;;;;;;;5008087;28;20452;-96
2021/01/24 12:17:13;;;;;;;2.70;2.50;;;;;;;;;;5003529;28;20521;-96
2021/01/24 12:19:39;;;;;;;3.63;2.13;;;;;;;;;;4956084;23;1673584;-95
2021/01/24 12:22:07;;;;;;;2.73;2.53;;;;;;;;;;5010074;23;20344;-96
2021/01/24 12:24:37;;;;;;;4.53;2.70;;;;;;;;;;5005442;28;20469;-96
2021/01/24 12:27:04;;;;;;;5.00;2.63;;;;;;;;;;5005889;28;20467;-96
2021/01/24 12:29:30;;;;;;;2.40;2.17;;;;;;;;;;5009171;28;20494;-96
2021/01/24 12:32:04;;;;;;;2.63;2.40;;;;;;;;;;5006350;28;20451;-96
2021/01/24 12:34:35;;;;;;;2.93;2.63;;;;;;;;;;5009202;28;20442;-94
2021/01/24 12:37:01;;;;;;;2.97;2.40;;;;;;;;;;5010534;28;20526;-96
2021/01/24 12:42:12;;;;;;;2.73;2.37;;;;;;;;;;5003645;28;20460;-96
2021/01/24 12:44:38;;;;;;;3.23;2.93;;;;;;;;;;5007389;28;20434;-96
2021/01/24 12:47:04;;;;;;;2.63;2.43;;;;;;;;;;5003195;28;20455;-96
2021/01/24 12:49:38;;;;;;;2.93;2.63;;;;;;;;;;5010194;28;20428;-96
2021/01/24 12:52:13;;;;;;;3.20;2.40;;;;;;;;;;4996253;28;20469;-96
2021/01/24 12:54:40;;;;;;;3.07;2.30;;;;;;;;;;5007021;28;20447;-96
2021/01/24 12:57:10;;;;;;;3.37;3.00;;;;;;;;;;5007503;28;20486;-96
2021/01/24 12:59:36;;;;;;;3.03;2.57;;;;;;;;;;5004802;28;20456;-95
2021/01/24 13:02:04;;;;;;;2.53;2.33;;;;;;;;;;5006685;28;20479;-96
2021/01/24 13:04:33;;;;;;;3.70;2.30;;;;;;;;;;5007667;28;20489;-95
2021/01/24 13:07:00;;;;;;;2.30;2.03;;;;;;;;;;5008608;28;20529;-96
2021/01/24 13:09:42;;;;;;;4.07;1.90;;;;;;;;;;5008098;28;20428;-96
2021/01/24 13:12:12;;;;;;;1.87;1.67;;;;;;;;;;4993906;28;20450;-96
2021/01/24 13:14:38;;;;;;;2.27;1.70;;;;;;;;;;5011007;28;20452;-96
2021/01/24 13:17:04;;;;;;;2.10;1.70;;;;;;;;;;5007848;28;20506;-93
2021/01/24 13:19:30;;;;;;;1.90;1.80;;;;;;;;;;5005865;28;20452;-96
2021/01/24 13:27:06;;;;;;;2.77;2.50;;;;;;;;;;5030128;28;20549;-96
2021/01/24 13:29:36;;;;;;;2.10;1.80;;;;;;;;;;5026826;28;20458;-96
2021/01/24 13:32:30;;;;;;;2.03;1.83;;;;;;;;;;5031516;28;20451;-96
2021/01/24 13:34:57;;;;;;;2.33;1.90;;;;;;;;;;5028389;28;20492;-96
2021/01/24 13:37:24;;;;;;;3.20;2.00;;;;;;;;;;5033129;28;20620;-95
2021/01/24 13:39:52;;;;;;;2.30;1.70;;;;;;;;;;5032380;28;20724;-96
2021/01/24 13:42:19;;;;;;;3.43;2.20;;;;;;;;;;5027617;28;20444;-95
2021/01/24 13:44:46;;;;;;;2.50;2.20;;;;;;;;;;5029186;28;20467;-94
2021/01/24 13:47:18;;;;;;;2.57;2.10;;;;;;;;;;5031095;28;20465;-96
2021/01/24 13:49:45;;;;;;;3.97;2.40;;;;;;;;;;5021038;28;20454;-96
2021/01/24 13:52:11;;;;;;;3.80;2.40;;;;;;;;;;5023594;28;20452;-96
2021/01/24 13:54:38;;;;;;;2.47;2.07;;;;;;;;;;5031547;28;20456;-96
2021/01/24 13:57:05;;;;;;;1.73;1.63;;;;;;;;;;5029334;28;20494;-96
2021/01/24 13:59:35;;;;;;;2.77;2.00;;;;;;;;;;5029935;28;20466;-96
2021/01/24 14:02:02;;;;;;;6.03;2.33;;;;;;;;;;5032094;28;20959;-96
2021/01/24 14:04:29;;;;;;;2.80;2.03;;;;;;;;;;5025706;28;20450;-96
2021/01/24 14:06:56;;;;;;;2.27;1.73;;;;;;;;;;5028826;28;20473;-96
2021/01/24 14:09:22;;;;;;;3.07;2.20;;;;;;;;;;5030416;28;20459;-93
2021/01/24 14:11:48;;;;;;;2.20;1.70;;;;;;;;;;5026204;28;20439;-96
2021/01/24 14:14:15;;;;;;;2.10;1.90;;;;;;;;;;5028211;28;20930;-94
2021/01/24 14:16:43;;;;;;;4.53;3.07;;;;;;;;;;5026664;28;20493;-92
2021/01/24 14:19:12;;;;;;;2.50;2.30;;;;;;;;;;5031069;28;20457;-95
2021/01/24 14:21:38;;;;;;;3.87;2.70;;;;;;;;;;5029464;28;20450;-96
2021/01/24 14:24:25;;;;;;;4.77;3.50;;;;;;;;;;5029050;28;20465;-96
2021/01/24 14:27:06;;;;;;;9.40;8.20;;;;;;;;;;5013817;28;20489;-95
2021/01/24 14:29:33;;;;;;;10.63;7.70;;;;;;;;;;5024900;28;20718;-96
2021/01/24 14:31:59;;;;;;;17.23;13.50;;;;;;;;;;5028381;28;20596;-94
2021/01/24 14:34:35;;;;;;;9.80;7.40;;;;;;;;;;5027800;28;20861;-96
2021/01/24 14:37:07;;;;;;;3.90;3.17;;;;;;;;;;5024716;28;20892;-96
2021/01/24 14:39:34;;;;;;;4.87;4.40;;;;;;;;;;5029676;28;20910;-96
2021/01/24 14:42:04;;;;;;;8.60;4.37;;;;;;;;;;5021984;28;20466;-96
2021/01/24 14:44:30;;;;;;;3.60;3.20;;;;;;;;;;5030255;28;20442;-95
2021/01/24 14:47:05;;;;;;;4.20;3.80;;;;;;;;;;5031676;28;20456;-96
2021/01/24 14:49:36;;;;;;;8.03;7.13;;;;;;;;;;5026390;28;20485;-96
2021/01/24 14:52:27;;;;;;;2.50;2.30;;;;;;;;;;5027576;28;20498;-96
2021/01/24 14:54:53;;;;;;;3.83;3.30;;;;;;;;;;5044993;23;20450;-96
2021/01/24 14:57:19;;;;;;;3.07;2.67;;;;;;;;;;5007393;28;20497;-94
2021/01/24 14:59:45;;;;;;;2.93;2.40;;;;;;;;;;5004385;28;20456;-96
2021/01/24 15:02:14;;;;;;;5.20;3.67;;;;;;;;;;5009533;28;20465;-96
2021/01/24 15:04:41;;;;;;;3.17;2.73;;;;;;;;;;5014676;28;20529;-96
2021/01/24 15:07:08;;;;;;;6.83;4.53;;;;;;;;;;5004108;28;20451;-96
2021/01/24 15:09:41;;;;;;;10.63;7.00;;;;;;;;;;5009201;28;20481;-96
2021/01/24 15:15:09;;;;;;;15.40;11.00;;;;;;;;;;5015544;23;20510;-96
2021/01/24 15:17:40;;;;;;;4.33;3.90;;;;;;;;;;5006356;28;20522;-96
2021/01/24 15:20:09;;;;;;;5.50;3.50;;;;;;;;;;5005483;28;20505;-96
2021/01/24 15:22:39;;;;;;;4.83;2.70;;;;;;;;;;5007787;28;20469;-96
2021/01/24 15:25:12;;;;;;;4.43;3.80;;;;;;;;;;5009229;28;20452;-95
2021/01/24 15:27:44;;;;;;;4.77;3.30;;;;;;;;;;5009455;28;20438;-96
2021/01/24 15:30:18;;;;;;;9.10;8.40;;;;;;;;;;5006994;28;20466;-96
2021/01/24 15:32:47;;;;;;;5.43;2.50;;;;;;;;;;5007446;28;20462;-96
2021/01/24 15:35:17;;;;;;;2.70;2.50;;;;;;;;;;5009071;28;20450;-96
2021/01/24 15:37:44;;;;;;;7.07;5.40;;;;;;;;;;5011392;28;20520;-95
2021/01/24 15:40:11;;;;;;;4.00;3.10;;;;;;;;;;5009288;28;20452;-96
2021/01/24 15:42:40;;;;;;;2.50;2.30;;;;;;;;;;5010777;28;20459;-96
2021/01/24 15:45:08;;;;;;;3.17;2.70;;;;;;;;;;5008254;28;20459;-96